sensor_id;sensor_type;location;lat;lon;timestamp;P1;durP1;ratioP1;P2;durP2;ratioP2
15340;SDS011;7770;52.158;5.372;2023-11-21T00:02:41;65.33;;;34.30;;
15340;SDS011;7770;52.158;5.372;2023-11-21T00:05:27;67.03;;;33.93;;
15340;SDS011;7770;52.158;5.372;2023-11-21T00:08:12;59.93;;;33.23;;
15340;SDS011;7770;52.158;5.372;2023-11-21T00:10:58;57.97;;;32.03;;
15340;SDS011;7770;52.158;5.372;2023-11-21T00:13:45;71.73;;;34.10;;
15340;SDS011;7770;52.158;5.372;2023-11-21T00:16:31;60.63;;;33.40;;
15340;SDS011;7770;52.158;5.372;2023-11-21T00:19:17;61.77;;;35.13;;
15340;SDS011;7770;52.158;5.372;2023-11-21T00:22:03;63.60;;;33.63;;
15340;SDS011;7770;52.158;5.372;2023-11-21T00:24:49;70.87;;;33.17;;
15340;SDS011;7770;52.158;5.372;2023-11-21T00:27:35;56.07;;;32.47;;
15340;SDS011;7770;52.158;5.372;2023-11-21T00:30:21;55.70;;;30.83;;
15340;SDS011;7770;52.158;5.372;2023-11-21T00:33:07;55.00;;;32.47;;
15340;SDS011;7770;52.158;5.372;2023-11-21T00:35:53;61.07;;;33.40;;
15340;SDS011;7770;52.158;5.372;2023-11-21T00:38:39;60.50;;;33.13;;
15340;SDS011;7770;52.158;5.372;2023-11-21T00:41:25;58.73;;;33.07;;
15340;SDS011;7770;52.158;5.372;2023-11-21T00:44:14;55.37;;;31.50;;
15340;SDS011;7770;52.158;5.372;2023-11-21T00:47:00;54.53;;;30.77;;
15340;SDS011;7770;52.158;5.372;2023-11-21T00:49:45;52.97;;;30.70;;
15340;SDS011;7770;52.158;5.372;2023-11-21T00:52:31;54.80;;;31.53;;
15340;SDS011;7770;52.158;5.372;2023-11-21T00:55:18;51.60;;;32.13;;
15340;SDS011;7770;52.158;5.372;2023-11-21T00:58:03;52.47;;;30.53;;
15340;SDS011;7770;52.158;5.372;2023-11-21T01:00:49;57.00;;;30.73;;
15340;SDS011;7770;52.158;5.372;2023-11-21T01:03:35;52.87;;;30.40;;
15340;SDS011;7770;52.158;5.372;2023-11-21T01:06:21;48.80;;;30.13;;
15340;SDS011;7770;52.158;5.372;2023-11-21T01:09:07;49.27;;;29.27;;
15340;SDS011;7770;52.158;5.372;2023-11-21T01:11:53;47.53;;;28.93;;
15340;SDS011;7770;52.158;5.372;2023-11-21T01:14:39;43.03;;;28.17;;
15340;SDS011;7770;52.158;5.372;2023-11-21T01:17:26;52.37;;;27.27;;
15340;SDS011;7770;52.158;5.372;2023-11-21T01:20:12;48.87;;;27.73;;
15340;SDS011;7770;52.158;5.372;2023-11-21T01:22:58;42.67;;;27.97;;
15340;SDS011;7770;52.158;5.372;2023-11-21T01:25:44;43.10;;;25.60;;
15340;SDS011;7770;52.158;5.372;2023-11-21T01:28:30;39.20;;;25.37;;
15340;SDS011;7770;52.158;5.372;2023-11-21T01:31:16;38.40;;;25.57;;
15340;SDS011;7770;52.158;5.372;2023-11-21T01:34:02;37.20;;;24.30;;
15340;SDS011;7770;52.158;5.372;2023-11-21T01:36:48;43.97;;;24.00;;
15340;SDS011;7770;52.158;5.372;2023-11-21T01:39:34;37.80;;;23.03;;
15340;SDS011;7770;52.158;5.372;2023-11-21T01:42:20;36.87;;;22.67;;
15340;SDS011;7770;52.158;5.372;2023-11-21T01:45:06;37.83;;;21.10;;
15340;SDS011;7770;52.158;5.372;2023-11-21T01:47:53;35.70;;;20.93;;
15340;SDS011;7770;52.158;5.372;2023-11-21T01:50:39;35.60;;;21.23;;
15340;SDS011;7770;52.158;5.372;2023-11-21T01:53:25;33.43;;;20.70;;
15340;SDS011;7770;52.158;5.372;2023-11-21T01:56:11;34.63;;;20.73;;
15340;SDS011;7770;52.158;5.372;2023-11-21T01:58:58;31.17;;;19.40;;
15340;SDS011;7770;52.158;5.372;2023-11-21T02:01:44;32.23;;;20.93;;
15340;SDS011;7770;52.158;5.372;2023-11-21T02:04:29;35.07;;;20.03;;
15340;SDS011;7770;52.158;5.372;2023-11-21T02:07:16;33.40;;;20.57;;
15340;SDS011;7770;52.158;5.372;2023-11-21T02:10:04;32.97;;;20.13;;
15340;SDS011;7770;52.158;5.372;2023-11-21T02:12:51;33.47;;;21.27;;
15340;SDS011;7770;52.158;5.372;2023-11-21T02:15:37;30.30;;;20.23;;
15340;SDS011;7770;52.158;5.372;2023-11-21T02:18:23;30.07;;;19.37;;
15340;SDS011;7770;52.158;5.372;2023-11-21T02:21:09;34.97;;;20.73;;
15340;SDS011;7770;52.158;5.372;2023-11-21T02:23:55;27.33;;;20.17;;
15340;SDS011;7770;52.158;5.372;2023-11-21T02:26:41;31.67;;;20.87;;
15340;SDS011;7770;52.158;5.372;2023-11-21T02:29:27;29.13;;;20.03;;
15340;SDS011;7770;52.158;5.372;2023-11-21T02:32:13;31.57;;;20.23;;
15340;SDS011;7770;52.158;5.372;2023-11-21T02:34:59;30.97;;;19.53;;
15340;SDS011;7770;52.158;5.372;2023-11-21T02:37:50;30.53;;;18.70;;
15340;SDS011;7770;52.158;5.372;2023-11-21T02:40:36;27.00;;;18.10;;
15340;SDS011;7770;52.158;5.372;2023-11-21T02:43:22;27.30;;;18.87;;
15340;SDS011;7770;52.158;5.372;2023-11-21T02:46:08;29.30;;;18.80;;
15340;SDS011;7770;52.158;5.372;2023-11-21T02:48:54;29.63;;;18.40;;
15340;SDS011;7770;52.158;5.372;2023-11-21T02:51:40;28.67;;;18.83;;
15340;SDS011;7770;52.158;5.372;2023-11-21T02:54:25;25.30;;;18.17;;
15340;SDS011;7770;52.158;5.372;2023-11-21T02:57:12;31.20;;;19.03;;
15340;SDS011;7770;52.158;5.372;2023-11-21T02:59:59;28.00;;;17.93;;
15340;SDS011;7770;52.158;5.372;2023-11-21T03:02:48;27.97;;;19.30;;
15340;SDS011;7770;52.158;5.372;2023-11-21T03:05:33;25.73;;;18.13;;
15340;SDS011;7770;52.158;5.372;2023-11-21T03:08:20;32.70;;;17.60;;
15340;SDS011;7770;52.158;5.372;2023-11-21T03:11:06;25.97;;;17.37;;
15340;SDS011;7770;52.158;5.372;2023-11-21T03:13:53;28.53;;;18.37;;
15340;SDS011;7770;52.158;5.372;2023-11-21T03:16:39;30.90;;;19.00;;
15340;SDS011;7770;52.158;5.372;2023-11-21T03:19:26;26.20;;;17.73;;
15340;SDS011;7770;52.158;5.372;2023-11-21T03:22:12;29.53;;;18.47;;
15340;SDS011;7770;52.158;5.372;2023-11-21T03:24:58;29.83;;;17.40;;
15340;SDS011;7770;52.158;5.372;2023-11-21T03:27:44;27.83;;;18.37;;
15340;SDS011;7770;52.158;5.372;2023-11-21T03:30:30;31.90;;;18.47;;
15340;SDS011;7770;52.158;5.372;2023-11-21T03:33:16;33.37;;;17.57;;
15340;SDS011;7770;52.158;5.372;2023-11-21T03:36:02;32.87;;;18.03;;
15340;SDS011;7770;52.158;5.372;2023-11-21T03:38:49;27.97;;;18.10;;
15340;SDS011;7770;52.158;5.372;2023-11-21T03:41:35;32.03;;;18.73;;
15340;SDS011;7770;52.158;5.372;2023-11-21T03:44:21;30.70;;;19.23;;
15340;SDS011;7770;52.158;5.372;2023-11-21T03:47:07;31.47;;;18.73;;
15340;SDS011;7770;52.158;5.372;2023-11-21T03:49:53;30.80;;;18.83;;
15340;SDS011;7770;52.158;5.372;2023-11-21T03:52:39;26.93;;;17.30;;
15340;SDS011;7770;52.158;5.372;2023-11-21T03:55:25;31.07;;;19.10;;
15340;SDS011;7770;52.158;5.372;2023-11-21T03:58:11;31.53;;;18.83;;
15340;SDS011;7770;52.158;5.372;2023-11-21T04:00:57;31.10;;;18.97;;
15340;SDS011;7770;52.158;5.372;2023-11-21T04:03:42;35.03;;;20.03;;
15340;SDS011;7770;52.158;5.372;2023-11-21T04:06:28;29.33;;;18.73;;
15340;SDS011;7770;52.158;5.372;2023-11-21T04:09:14;29.47;;;18.13;;
15340;SDS011;7770;52.158;5.372;2023-11-21T04:12:00;28.43;;;19.20;;
15340;SDS011;7770;52.158;5.372;2023-11-21T04:14:46;29.10;;;18.87;;
15340;SDS011;7770;52.158;5.372;2023-11-21T04:17:31;31.00;;;19.67;;
15340;SDS011;7770;52.158;5.372;2023-11-21T04:20:17;31.03;;;19.77;;
15340;SDS011;7770;52.158;5.372;2023-11-21T04:23:03;25.93;;;18.10;;
15340;SDS011;7770;52.158;5.372;2023-11-21T04:25:49;27.47;;;19.20;;
15340;SDS011;7770;52.158;5.372;2023-11-21T04:28:35;29.33;;;18.93;;
15340;SDS011;7770;52.158;5.372;2023-11-21T04:31:21;29.50;;;19.07;;
15340;SDS011;7770;52.158;5.372;2023-11-21T04:34:07;32.30;;;19.03;;
15340;SDS011;7770;52.158;5.372;2023-11-21T04:36:53;31.57;;;19.27;;
15340;SDS011;7770;52.158;5.372;2023-11-21T04:39:39;28.33;;;19.70;;
15340;SDS011;7770;52.158;5.372;2023-11-21T04:42:25;31.13;;;20.77;;
15340;SDS011;7770;52.158;5.372;2023-11-21T04:45:10;32.30;;;20.13;;
15340;SDS011;7770;52.158;5.372;2023-11-21T04:47:57;31.60;;;20.30;;
15340;SDS011;7770;52.158;5.372;2023-11-21T04:50:42;33.00;;;21.00;;
15340;SDS011;7770;52.158;5.372;2023-11-21T04:53:28;31.83;;;21.27;;
15340;SDS011;7770;52.158;5.372;2023-11-21T04:56:14;34.87;;;22.57;;
15340;SDS011;7770;52.158;5.372;2023-11-21T04:59:01;34.33;;;22.60;;
15340;SDS011;7770;52.158;5.372;2023-11-21T05:01:47;32.73;;;21.63;;
15340;SDS011;7770;52.158;5.372;2023-11-21T05:04:33;37.33;;;21.70;;
15340;SDS011;7770;52.158;5.372;2023-11-21T05:07:18;38.23;;;21.90;;
15340;SDS011;7770;52.158;5.372;2023-11-21T05:10:05;37.63;;;21.33;;
15340;SDS011;7770;52.158;5.372;2023-11-21T05:12:54;32.70;;;21.03;;
15340;SDS011;7770;52.158;5.372;2023-11-21T05:15:40;35.80;;;21.33;;
15340;SDS011;7770;52.158;5.372;2023-11-21T05:18:26;32.13;;;20.23;;
15340;SDS011;7770;52.158;5.372;2023-11-21T05:21:12;30.77;;;21.20;;
15340;SDS011;7770;52.158;5.372;2023-11-21T05:23:58;30.90;;;20.57;;
15340;SDS011;7770;52.158;5.372;2023-11-21T05:26:44;39.10;;;21.07;;
15340;SDS011;7770;52.158;5.372;2023-11-21T05:29:30;35.23;;;19.73;;
15340;SDS011;7770;52.158;5.372;2023-11-21T05:32:16;34.37;;;21.57;;
15340;SDS011;7770;52.158;5.372;2023-11-21T05:35:02;33.23;;;20.70;;
15340;SDS011;7770;52.158;5.372;2023-11-21T05:37:49;33.57;;;21.00;;
15340;SDS011;7770;52.158;5.372;2023-11-21T05:40:35;32.13;;;20.97;;
15340;SDS011;7770;52.158;5.372;2023-11-21T05:43:22;33.77;;;22.00;;
15340;SDS011;7770;52.158;5.372;2023-11-21T05:46:08;37.50;;;21.97;;
15340;SDS011;7770;52.158;5.372;2023-11-21T05:48:54;38.70;;;22.47;;
15340;SDS011;7770;52.158;5.372;2023-11-21T05:51:40;34.97;;;21.57;;
15340;SDS011;7770;52.158;5.372;2023-11-21T05:54:26;33.40;;;21.60;;
15340;SDS011;7770;52.158;5.372;2023-11-21T05:57:11;40.60;;;21.63;;
15340;SDS011;7770;52.158;5.372;2023-11-21T05:59:57;37.30;;;21.47;;
15340;SDS011;7770;52.158;5.372;2023-11-21T06:02:43;33.73;;;20.93;;
15340;SDS011;7770;52.158;5.372;2023-11-21T06:05:30;32.13;;;22.13;;
15340;SDS011;7770;52.158;5.372;2023-11-21T06:08:18;33.20;;;21.13;;
15340;SDS011;7770;52.158;5.372;2023-11-21T06:11:04;38.53;;;21.20;;
15340;SDS011;7770;52.158;5.372;2023-11-21T06:13:50;36.57;;;21.13;;
15340;SDS011;7770;52.158;5.372;2023-11-21T06:16:38;30.90;;;21.33;;
15340;SDS011;7770;52.158;5.372;2023-11-21T06:19:25;29.30;;;20.43;;
15340;SDS011;7770;52.158;5.372;2023-11-21T06:22:11;34.03;;;21.93;;
15340;SDS011;7770;52.158;5.372;2023-11-21T06:24:57;35.53;;;21.40;;
15340;SDS011;7770;52.158;5.372;2023-11-21T06:27:43;29.83;;;19.63;;
15340;SDS011;7770;52.158;5.372;2023-11-21T06:30:30;30.20;;;21.23;;
15340;SDS011;7770;52.158;5.372;2023-11-21T06:33:17;32.60;;;21.60;;
15340;SDS011;7770;52.158;5.372;2023-11-21T06:36:03;35.03;;;22.10;;
15340;SDS011;7770;52.158;5.372;2023-11-21T06:38:49;29.77;;;20.50;;
15340;SDS011;7770;52.158;5.372;2023-11-21T06:41:35;31.63;;;21.10;;
15340;SDS011;7770;52.158;5.372;2023-11-21T06:44:24;32.63;;;21.53;;
15340;SDS011;7770;52.158;5.372;2023-11-21T06:47:10;33.20;;;20.97;;
15340;SDS011;7770;52.158;5.372;2023-11-21T06:49:56;30.87;;;20.77;;
15340;SDS011;7770;52.158;5.372;2023-11-21T06:52:42;28.27;;;20.53;;
15340;SDS011;7770;52.158;5.372;2023-11-21T06:55:28;29.83;;;20.60;;
15340;SDS011;7770;52.158;5.372;2023-11-21T06:58:14;34.67;;;20.93;;
15340;SDS011;7770;52.158;5.372;2023-11-21T07:01:00;27.57;;;19.90;;
15340;SDS011;7770;52.158;5.372;2023-11-21T07:03:46;30.83;;;18.87;;
15340;SDS011;7770;52.158;5.372;2023-11-21T07:06:32;26.03;;;19.00;;
15340;SDS011;7770;52.158;5.372;2023-11-21T07:09:18;27.20;;;18.43;;
15340;SDS011;7770;52.158;5.372;2023-11-21T07:12:07;23.77;;;18.50;;
15340;SDS011;7770;52.158;5.372;2023-11-21T07:14:53;31.43;;;18.87;;
15340;SDS011;7770;52.158;5.372;2023-11-21T07:17:39;35.20;;;19.30;;
15340;SDS011;7770;52.158;5.372;2023-11-21T07:20:25;31.70;;;18.93;;
15340;SDS011;7770;52.158;5.372;2023-11-21T07:23:12;31.70;;;19.13;;
15340;SDS011;7770;52.158;5.372;2023-11-21T07:25:58;28.37;;;17.63;;
15340;SDS011;7770;52.158;5.372;2023-11-21T07:28:43;29.30;;;18.60;;
15340;SDS011;7770;52.158;5.372;2023-11-21T07:31:29;29.87;;;19.10;;
15340;SDS011;7770;52.158;5.372;2023-11-21T07:34:16;24.27;;;18.07;;
15340;SDS011;7770;52.158;5.372;2023-11-21T07:37:02;28.47;;;18.93;;
15340;SDS011;7770;52.158;5.372;2023-11-21T07:39:48;29.07;;;17.80;;
15340;SDS011;7770;52.158;5.372;2023-11-21T07:42:34;26.30;;;18.03;;
15340;SDS011;7770;52.158;5.372;2023-11-21T07:45:20;23.10;;;17.47;;
15340;SDS011;7770;52.158;5.372;2023-11-21T07:48:07;21.93;;;17.67;;
15340;SDS011;7770;52.158;5.372;2023-11-21T07:50:53;22.37;;;15.50;;
15340;SDS011;7770;52.158;5.372;2023-11-21T07:53:39;18.30;;;12.00;;
15340;SDS011;7770;52.158;5.372;2023-11-21T07:56:24;19.97;;;11.33;;
15340;SDS011;7770;52.158;5.372;2023-11-21T07:59:10;20.63;;;11.47;;
15340;SDS011;7770;52.158;5.372;2023-11-21T08:01:57;20.40;;;11.27;;
15340;SDS011;7770;52.158;5.372;2023-11-21T08:04:43;15.73;;;10.00;;
15340;SDS011;7770;52.158;5.372;2023-11-21T08:07:30;20.30;;;11.03;;
15340;SDS011;7770;52.158;5.372;2023-11-21T08:10:16;16.60;;;10.27;;
15340;SDS011;7770;52.158;5.372;2023-11-21T08:13:03;21.73;;;10.70;;
15340;SDS011;7770;52.158;5.372;2023-11-21T08:15:49;24.40;;;11.43;;
15340;SDS011;7770;52.158;5.372;2023-11-21T08:18:35;17.03;;;11.37;;
15340;SDS011;7770;52.158;5.372;2023-11-21T08:21:21;16.57;;;10.70;;
15340;SDS011;7770;52.158;5.372;2023-11-21T08:24:09;16.73;;;10.70;;
15340;SDS011;7770;52.158;5.372;2023-11-21T08:26:56;15.70;;;10.90;;
15340;SDS011;7770;52.158;5.372;2023-11-21T08:29:43;16.83;;;10.80;;
15340;SDS011;7770;52.158;5.372;2023-11-21T08:32:29;17.20;;;11.03;;
15340;SDS011;7770;52.158;5.372;2023-11-21T08:35:18;15.60;;;11.43;;
15340;SDS011;7770;52.158;5.372;2023-11-21T08:38:05;16.70;;;11.07;;
15340;SDS011;7770;52.158;5.372;2023-11-21T08:40:51;17.20;;;10.87;;
15340;SDS011;7770;52.158;5.372;2023-11-21T08:43:37;18.83;;;11.00;;
15340;SDS011;7770;52.158;5.372;2023-11-21T08:46:25;19.17;;;10.87;;
15340;SDS011;7770;52.158;5.372;2023-11-21T08:49:12;17.90;;;11.47;;
15340;SDS011;7770;52.158;5.372;2023-11-21T08:51:58;19.63;;;12.73;;
15340;SDS011;7770;52.158;5.372;2023-11-21T08:54:45;19.70;;;14.47;;
15340;SDS011;7770;52.158;5.372;2023-11-21T08:57:30;20.00;;;13.40;;
15340;SDS011;7770;52.158;5.372;2023-11-21T09:00:16;21.67;;;14.90;;
15340;SDS011;7770;52.158;5.372;2023-11-21T09:03:03;19.33;;;12.97;;
15340;SDS011;7770;52.158;5.372;2023-11-21T09:05:53;21.07;;;13.87;;
15340;SDS011;7770;52.158;5.372;2023-11-21T09:08:39;18.33;;;13.13;;
15340;SDS011;7770;52.158;5.372;2023-11-21T09:11:25;18.07;;;13.93;;
15340;SDS011;7770;52.158;5.372;2023-11-21T09:14:16;23.47;;;15.53;;
15340;SDS011;7770;52.158;5.372;2023-11-21T09:17:03;22.63;;;15.60;;
15340;SDS011;7770;52.158;5.372;2023-11-21T09:19:49;25.60;;;17.63;;
15340;SDS011;7770;52.158;5.372;2023-11-21T09:22:36;23.43;;;16.93;;
15340;SDS011;7770;52.158;5.372;2023-11-21T09:25:22;23.97;;;17.43;;
15340;SDS011;7770;52.158;5.372;2023-11-21T09:28:08;23.73;;;18.00;;
15340;SDS011;7770;52.158;5.372;2023-11-21T09:30:54;23.53;;;17.80;;
15340;SDS011;7770;52.158;5.372;2023-11-21T09:33:40;24.33;;;17.20;;
15340;SDS011;7770;52.158;5.372;2023-11-21T09:36:27;22.20;;;16.47;;
15340;SDS011;7770;52.158;5.372;2023-11-21T09:39:15;20.80;;;16.13;;
15340;SDS011;7770;52.158;5.372;2023-11-21T09:42:04;23.37;;;15.00;;
15340;SDS011;7770;52.158;5.372;2023-11-21T09:45:14;17.67;;;13.73;;
15340;SDS011;7770;52.158;5.372;2023-11-21T09:48:05;20.07;;;14.07;;
15340;SDS011;7770;52.158;5.372;2023-11-21T09:50:52;18.27;;;13.43;;
15340;SDS011;7770;52.158;5.372;2023-11-21T09:53:39;17.07;;;14.00;;
15340;SDS011;7770;52.158;5.372;2023-11-21T09:56:29;19.73;;;14.97;;
15340;SDS011;7770;52.158;5.372;2023-11-21T09:59:15;19.27;;;14.77;;
15340;SDS011;7770;52.158;5.372;2023-11-21T10:02:01;20.00;;;14.20;;
15340;SDS011;7770;52.158;5.372;2023-11-21T10:04:48;20.47;;;14.13;;
15340;SDS011;7770;52.158;5.372;2023-11-21T10:07:34;20.77;;;14.40;;
15340;SDS011;7770;52.158;5.372;2023-11-21T10:10:20;19.73;;;13.07;;
15340;SDS011;7770;52.158;5.372;2023-11-21T10:13:08;17.47;;;13.27;;
15340;SDS011;7770;52.158;5.372;2023-11-21T10:16:01;16.73;;;12.80;;
15340;SDS011;7770;52.158;5.372;2023-11-21T10:18:51;15.20;;;10.60;;
15340;SDS011;7770;52.158;5.372;2023-11-21T10:21:40;14.83;;;11.00;;
15340;SDS011;7770;52.158;5.372;2023-11-21T10:24:26;13.63;;;10.43;;
15340;SDS011;7770;52.158;5.372;2023-11-21T10:27:12;12.20;;;9.40;;
15340;SDS011;7770;52.158;5.372;2023-11-21T10:30:00;15.03;;;10.90;;
15340;SDS011;7770;52.158;5.372;2023-11-21T10:32:48;13.40;;;10.70;;
15340;SDS011;7770;52.158;5.372;2023-11-21T10:35:47;13.47;;;10.93;;
15340;SDS011;7770;52.158;5.372;2023-11-21T10:38:41;15.77;;;11.60;;
15340;SDS011;7770;52.158;5.372;2023-11-21T10:41:27;16.10;;;12.70;;
15340;SDS011;7770;52.158;5.372;2023-11-21T10:44:14;15.30;;;12.30;;
15340;SDS011;7770;52.158;5.372;2023-11-21T10:47:08;16.07;;;11.50;;
15340;SDS011;7770;52.158;5.372;2023-11-21T10:49:57;17.40;;;13.43;;
15340;SDS011;7770;52.158;5.372;2023-11-21T10:52:45;17.57;;;13.63;;
15340;SDS011;7770;52.158;5.372;2023-11-21T10:55:32;17.63;;;14.20;;
15340;SDS011;7770;52.158;5.372;2023-11-21T10:58:19;17.97;;;14.13;;
15340;SDS011;7770;52.158;5.372;2023-11-21T11:01:05;21.30;;;14.53;;
15340;SDS011;7770;52.158;5.372;2023-11-21T11:03:52;23.47;;;16.93;;
15340;SDS011;7770;52.158;5.372;2023-11-21T11:06:40;21.07;;;16.40;;
15340;SDS011;7770;52.158;5.372;2023-11-21T11:09:31;25.60;;;17.53;;
15340;SDS011;7770;52.158;5.372;2023-11-21T11:12:19;23.13;;;17.23;;
15340;SDS011;7770;52.158;5.372;2023-11-21T11:15:06;22.10;;;17.40;;
15340;SDS011;7770;52.158;5.372;2023-11-21T11:17:54;24.33;;;17.90;;
15340;SDS011;7770;52.158;5.372;2023-11-21T11:20:44;23.13;;;17.40;;
15340;SDS011;7770;52.158;5.372;2023-11-21T11:23:44;22.53;;;17.53;;
15340;SDS011;7770;52.158;5.372;2023-11-21T11:27:01;21.80;;;16.60;;
15340;SDS011;7770;52.158;5.372;2023-11-21T11:30:00;22.90;;;17.03;;
15340;SDS011;7770;52.158;5.372;2023-11-21T11:33:02;20.67;;;16.70;;
15340;SDS011;7770;52.158;5.372;2023-11-21T11:36:17;23.10;;;16.53;;
15340;SDS011;7770;52.158;5.372;2023-11-21T11:39:29;21.23;;;16.97;;
15340;SDS011;7770;52.158;5.372;2023-11-21T11:42:17;20.10;;;16.33;;
15340;SDS011;7770;52.158;5.372;2023-11-21T11:45:17;21.47;;;16.10;;
15340;SDS011;7770;52.158;5.372;2023-11-21T11:48:05;20.30;;;16.40;;
15340;SDS011;7770;52.158;5.372;2023-11-21T11:54:06;20.03;;;17.13;;
15340;SDS011;7770;52.158;5.372;2023-11-21T11:56:52;21.73;;;16.37;;
15340;SDS011;7770;52.158;5.372;2023-11-21T12:03:00;23.33;;;16.97;;
15340;SDS011;7770;52.158;5.372;2023-11-21T12:05:48;22.97;;;17.77;;
15340;SDS011;7770;52.158;5.372;2023-11-21T12:08:37;23.67;;;18.53;;
15340;SDS011;7770;52.158;5.372;2023-11-21T12:11:30;23.67;;;18.97;;
15340;SDS011;7770;52.158;5.372;2023-11-21T12:14:16;23.93;;;19.30;;
15340;SDS011;7770;52.158;5.372;2023-11-21T12:17:03;23.93;;;19.40;;
15340;SDS011;7770;52.158;5.372;2023-11-21T12:19:50;24.93;;;19.03;;
15340;SDS011;7770;52.158;5.372;2023-11-21T12:22:37;24.07;;;19.53;;
15340;SDS011;7770;52.158;5.372;2023-11-21T12:25:27;25.83;;;19.77;;
15340;SDS011;7770;52.158;5.372;2023-11-21T12:28:14;23.33;;;18.27;;
15340;SDS011;7770;52.158;5.372;2023-11-21T12:31:00;23.33;;;18.80;;
15340;SDS011;7770;52.158;5.372;2023-11-21T12:33:46;21.67;;;18.23;;
15340;SDS011;7770;52.158;5.372;2023-11-21T12:36:32;22.67;;;18.30;;
15340;SDS011;7770;52.158;5.372;2023-11-21T12:39:20;24.20;;;17.90;;
15340;SDS011;7770;52.158;5.372;2023-11-21T12:42:08;19.20;;;16.67;;
15340;SDS011;7770;52.158;5.372;2023-11-21T12:48:06;18.87;;;15.57;;
15340;SDS011;7770;52.158;5.372;2023-11-21T12:50:56;16.00;;;13.93;;
15340;SDS011;7770;52.158;5.372;2023-11-21T12:53:45;16.13;;;14.00;;
15340;SDS011;7770;52.158;5.372;2023-11-21T12:56:32;14.23;;;11.57;;
15340;SDS011;7770;52.158;5.372;2023-11-21T12:59:18;13.27;;;11.53;;
15340;SDS011;7770;52.158;5.372;2023-11-21T13:02:07;12.13;;;10.00;;
15340;SDS011;7770;52.158;5.372;2023-11-21T13:04:54;11.27;;;9.73;;
15340;SDS011;7770;52.158;5.372;2023-11-21T13:07:43;11.27;;;9.47;;
15340;SDS011;7770;52.158;5.372;2023-11-21T13:10:32;11.60;;;9.97;;
15340;SDS011;7770;52.158;5.372;2023-11-21T13:13:21;11.80;;;10.47;;
15340;SDS011;7770;52.158;5.372;2023-11-21T13:16:09;11.57;;;9.13;;
15340;SDS011;7770;52.158;5.372;2023-11-21T13:18:55;13.27;;;9.57;;
15340;SDS011;7770;52.158;5.372;2023-11-21T13:21:41;9.17;;;7.20;;
15340;SDS011;7770;52.158;5.372;2023-11-21T13:24:27;7.87;;;6.30;;
15340;SDS011;7770;52.158;5.372;2023-11-21T13:27:13;7.00;;;5.83;;
15340;SDS011;7770;52.158;5.372;2023-11-21T13:30:00;8.63;;;6.77;;
15340;SDS011;7770;52.158;5.372;2023-11-21T13:32:46;8.57;;;6.30;;
15340;SDS011;7770;52.158;5.372;2023-11-21T13:35:32;9.07;;;6.77;;
15340;SDS011;7770;52.158;5.372;2023-11-21T13:38:32;8.83;;;6.37;;
15340;SDS011;7770;52.158;5.372;2023-11-21T13:41:18;8.60;;;6.83;;
15340;SDS011;7770;52.158;5.372;2023-11-21T13:44:05;9.47;;;7.53;;
15340;SDS011;7770;52.158;5.372;2023-11-21T13:47:02;9.30;;;7.80;;
15340;SDS011;7770;52.158;5.372;2023-11-21T13:49:51;10.10;;;8.33;;
15340;SDS011;7770;52.158;5.372;2023-11-21T13:52:37;11.00;;;8.50;;
15340;SDS011;7770;52.158;5.372;2023-11-21T13:55:23;16.07;;;12.47;;
15340;SDS011;7770;52.158;5.372;2023-11-21T13:58:10;17.00;;;12.77;;
15340;SDS011;7770;52.158;5.372;2023-11-21T14:01:02;16.97;;;12.80;;
15340;SDS011;7770;52.158;5.372;2023-11-21T14:03:51;15.80;;;12.93;;
15340;SDS011;7770;52.158;5.372;2023-11-21T14:06:39;16.77;;;12.73;;
15340;SDS011;7770;52.158;5.372;2023-11-21T14:09:30;18.07;;;14.50;;
15340;SDS011;7770;52.158;5.372;2023-11-21T14:12:28;18.67;;;14.17;;
15340;SDS011;7770;52.158;5.372;2023-11-21T14:15:19;19.73;;;16.13;;
15340;SDS011;7770;52.158;5.372;2023-11-21T14:18:05;22.03;;;16.47;;
15340;SDS011;7770;52.158;5.372;2023-11-21T14:20:53;24.43;;;18.37;;
15340;SDS011;7770;52.158;5.372;2023-11-21T14:23:39;19.60;;;15.73;;
15340;SDS011;7770;52.158;5.372;2023-11-21T14:26:25;25.83;;;17.20;;
15340;SDS011;7770;52.158;5.372;2023-11-21T14:29:11;23.80;;;16.50;;
15340;SDS011;7770;52.158;5.372;2023-11-21T14:32:05;22.27;;;16.67;;
15340;SDS011;7770;52.158;5.372;2023-11-21T14:34:52;24.10;;;16.83;;
15340;SDS011;7770;52.158;5.372;2023-11-21T14:37:37;22.47;;;17.40;;
15340;SDS011;7770;52.158;5.372;2023-11-21T14:40:24;21.33;;;16.17;;
15340;SDS011;7770;52.158;5.372;2023-11-21T14:43:10;22.97;;;17.77;;
15340;SDS011;7770;52.158;5.372;2023-11-21T14:45:56;22.37;;;18.13;;
15340;SDS011;7770;52.158;5.372;2023-11-21T14:48:43;21.97;;;17.67;;
15340;SDS011;7770;52.158;5.372;2023-11-21T14:51:32;21.20;;;17.73;;
15340;SDS011;7770;52.158;5.372;2023-11-21T14:54:35;26.70;;;20.80;;
15340;SDS011;7770;52.158;5.372;2023-11-21T14:57:25;25.33;;;19.20;;
15340;SDS011;7770;52.158;5.372;2023-11-21T15:00:12;24.53;;;20.50;;
15340;SDS011;7770;52.158;5.372;2023-11-21T15:03:18;26.17;;;19.27;;
15340;SDS011;7770;52.158;5.372;2023-11-21T15:06:16;26.40;;;20.27;;
15340;SDS011;7770;52.158;5.372;2023-11-21T15:09:05;20.50;;;15.13;;
15340;SDS011;7770;52.158;5.372;2023-11-21T15:11:54;21.30;;;17.40;;
15340;SDS011;7770;52.158;5.372;2023-11-21T15:17:35;20.60;;;17.13;;
15340;SDS011;7770;52.158;5.372;2023-11-21T15:20:22;18.87;;;16.63;;
15340;SDS011;7770;52.158;5.372;2023-11-21T15:23:08;18.97;;;16.93;;
15340;SDS011;7770;52.158;5.372;2023-11-21T15:25:54;20.90;;;17.70;;
15340;SDS011;7770;52.158;5.372;2023-11-21T15:28:40;19.67;;;17.57;;
15340;SDS011;7770;52.158;5.372;2023-11-21T15:31:26;19.03;;;16.47;;
15340;SDS011;7770;52.158;5.372;2023-11-21T15:34:12;19.23;;;16.47;;
15340;SDS011;7770;52.158;5.372;2023-11-21T15:36:58;19.43;;;17.40;;
15340;SDS011;7770;52.158;5.372;2023-11-21T15:39:44;19.10;;;16.60;;
15340;SDS011;7770;52.158;5.372;2023-11-21T15:42:30;20.00;;;16.97;;
15340;SDS011;7770;52.158;5.372;2023-11-21T15:45:16;19.83;;;17.17;;
15340;SDS011;7770;52.158;5.372;2023-11-21T15:48:04;18.63;;;16.33;;
15340;SDS011;7770;52.158;5.372;2023-11-21T15:50:50;17.60;;;15.73;;
15340;SDS011;7770;52.158;5.372;2023-11-21T15:53:37;18.33;;;16.43;;
15340;SDS011;7770;52.158;5.372;2023-11-21T15:56:23;20.33;;;17.07;;
15340;SDS011;7770;52.158;5.372;2023-11-21T15:59:09;18.47;;;15.03;;
15340;SDS011;7770;52.158;5.372;2023-11-21T16:01:55;19.23;;;17.17;;
15340;SDS011;7770;52.158;5.372;2023-11-21T16:04:42;22.17;;;17.97;;
15340;SDS011;7770;52.158;5.372;2023-11-21T16:07:28;19.60;;;17.30;;
15340;SDS011;7770;52.158;5.372;2023-11-21T16:10:14;19.30;;;17.20;;
15340;SDS011;7770;52.158;5.372;2023-11-21T16:13:00;19.23;;;16.53;;
15340;SDS011;7770;52.158;5.372;2023-11-21T16:15:46;19.00;;;17.00;;
15340;SDS011;7770;52.158;5.372;2023-11-21T16:18:32;20.70;;;16.90;;
15340;SDS011;7770;52.158;5.372;2023-11-21T16:21:18;18.67;;;16.67;;
15340;SDS011;7770;52.158;5.372;2023-11-21T16:24:05;19.80;;;16.23;;
15340;SDS011;7770;52.158;5.372;2023-11-21T16:26:51;20.50;;;16.83;;
15340;SDS011;7770;52.158;5.372;2023-11-21T16:29:37;19.27;;;16.83;;
15340;SDS011;7770;52.158;5.372;2023-11-21T16:32:25;18.37;;;16.17;;
15340;SDS011;7770;52.158;5.372;2023-11-21T16:35:12;22.40;;;16.57;;
15340;SDS011;7770;52.158;5.372;2023-11-21T16:37:58;20.13;;;17.10;;
15340;SDS011;7770;52.158;5.372;2023-11-21T16:40:44;21.13;;;17.43;;
15340;SDS011;7770;52.158;5.372;2023-11-21T16:43:31;21.23;;;16.80;;
15340;SDS011;7770;52.158;5.372;2023-11-21T16:46:17;19.93;;;15.93;;
15340;SDS011;7770;52.158;5.372;2023-11-21T16:49:03;17.57;;;15.17;;